createdAt,value
2023-03-22T00:00:17.642Z,98913.06
2023-03-22T00:02:44.787Z,98913.53
2023-03-22T00:05:11.863Z,98915.38
2023-03-22T00:07:41.107Z,98915.66
2023-03-22T00:10:08.532Z,98918.28
2023-03-22T00:12:35.744Z,98920.44
2023-03-22T00:15:02.888Z,98927.75
2023-03-22T00:17:31.139Z,98916.28
2023-03-22T00:19:58.472Z,98915.09
2023-03-22T00:22:26.215Z,98919.31
2023-03-22T00:24:53.263Z,98917.81
2023-03-22T00:27:20.564Z,98922.44
2023-03-22T00:29:47.683Z,98924.06
2023-03-22T00:32:16.293Z,98920.06
2023-03-22T00:34:43.523Z,98925.03
2023-03-22T00:37:10.652Z,98924.31
2023-03-22T00:39:37.901Z,98937.53
2023-03-22T00:42:06.836Z,98939.56
2023-03-22T00:44:33.839Z,98935.53
2023-03-22T00:47:01.197Z,98943.97
2023-03-22T00:49:29.321Z,98934.59
2023-03-22T00:51:56.628Z,98945.16
2023-03-22T00:54:23.570Z,98949.66
2023-03-22T00:56:50.798Z,98948.84
2023-03-22T00:59:18.095Z,98948.06
2023-03-22T01:01:45.188Z,98948.63
2023-03-22T01:04:18.088Z,98952.56
2023-03-22T01:06:47.295Z,98953.59
2023-03-22T01:09:15.221Z,98958.06
2023-03-22T01:11:43.616Z,98961.59
2023-03-22T01:14:13.994Z,98966.53
2023-03-22T01:16:41.293Z,98968.19
2023-03-22T01:19:08.817Z,98967.63
2023-03-22T01:21:35.980Z,98970.28
2023-03-22T01:24:03.476Z,98968.81
2023-03-22T01:26:30.674Z,98983.22
2023-03-22T01:28:57.792Z,98969.25
2023-03-22T01:31:25.045Z,98986.09
2023-03-22T01:33:52.161Z,98983.94
2023-03-22T01:36:21.168Z,98989.28
2023-03-22T01:38:48.237Z,98997.06
2023-03-22T01:41:17.270Z,98990.91
2023-03-22T01:43:45.095Z,99007.53
2023-03-22T01:46:12.394Z,99005.88
2023-03-22T01:48:46.190Z,99006.88
2023-03-22T01:51:14.635Z,99013.56
2023-03-22T01:53:58.709Z,99013.94
2023-03-22T01:56:28.810Z,99013.56
2023-03-22T01:58:56.542Z,99016.50
2023-03-22T02:01:33.847Z,99019.19
2023-03-22T02:04:15.274Z,99014.69
2023-03-22T02:06:43.097Z,99018.25
2023-03-22T02:09:22.160Z,99023.56
2023-03-22T02:12:08.683Z,99016.59
2023-03-22T02:14:56.534Z,99016.25
2023-03-22T02:18:17.268Z,99021.22
2023-03-22T02:21:10.554Z,99026.53
2023-03-22T02:23:46.626Z,99026.19
2023-03-22T02:26:50.781Z,99030.84
2023-03-22T02:29:38.223Z,99034.31
2023-03-22T02:32:41.325Z,99031.00
2023-03-22T02:35:19.037Z,99030.19
2023-03-22T02:37:55.454Z,99039.19
2023-03-22T02:40:34.769Z,99037.19
2023-03-22T02:43:18.492Z,99038.16
2023-03-22T02:45:54.625Z,99043.31
2023-03-22T02:48:27.674Z,99046.81
2023-03-22T02:51:10.702Z,99052.28
2023-03-22T02:54:03.870Z,99061.41
2023-03-22T02:56:39.457Z,99059.41
2023-03-22T02:59:12.077Z,99064.44
2023-03-22T03:02:02.028Z,99064.16
2023-03-22T03:04:33.391Z,99070.34
2023-03-22T03:07:06.132Z,99070.66
2023-03-22T03:09:33.774Z,99066.84
2023-03-22T03:12:00.839Z,99073.53
2023-03-22T03:14:31.288Z,99065.19
2023-03-22T03:17:17.235Z,99077.97
2023-03-22T03:20:00.570Z,99089.44
2023-03-22T03:22:59.008Z,99084.47
2023-03-22T03:25:29.128Z,99084.31
2023-03-22T03:28:11.578Z,99086.13
2023-03-22T03:30:57.257Z,99090.97
2023-03-22T03:33:28.283Z,99089.50
2023-03-22T03:36:11.817Z,99099.13
2023-03-22T03:38:45.500Z,99094.63
2023-03-22T03:41:20.341Z,99106.44
2023-03-22T03:43:51.690Z,99101.66
2023-03-22T03:46:19.156Z,99104.44
2023-03-22T03:48:49.725Z,99110.44
2023-03-22T03:51:17.124Z,99115.09
2023-03-22T03:53:44.472Z,99114.75
2023-03-22T03:56:11.884Z,99112.09
2023-03-22T03:58:43.942Z,99123.88
2023-03-22T04:01:11.689Z,99125.16
2023-03-22T04:03:50.844Z,99124.34
2023-03-22T04:06:36.226Z,99128.66
2023-03-22T04:09:09.820Z,99123.34
2023-03-22T04:11:41.788Z,99133.50
2023-03-22T04:14:09.087Z,99133.00
2023-03-22T04:16:36.413Z,99129.66
2023-03-22T04:19:04.320Z,99138.66
2023-03-22T04:21:31.364Z,99131.66
2023-03-22T04:24:01.010Z,99139.16
2023-03-22T04:26:34.099Z,99139.78
2023-03-22T04:29:14.922Z,99138.97
2023-03-22T04:31:46.901Z,99155.59
2023-03-22T04:34:39.484Z,99148.63
2023-03-22T04:37:14.011Z,99156.75
2023-03-22T04:39:48.542Z,99154.63
2023-03-22T04:42:36.202Z,99154.63
2023-03-22T04:45:12.540Z,99161.13
2023-03-22T04:47:41.302Z,99163.94
2023-03-22T04:50:09.363Z,99168.38
2023-03-22T04:52:44.935Z,99180.22
2023-03-22T04:55:12.128Z,99191.81
2023-03-22T04:57:39.383Z,99190.81
2023-03-22T05:00:08.707Z,99190.81
2023-03-22T05:02:41.415Z,99183.00
2023-03-22T05:05:16.282Z,99197.50
2023-03-22T05:07:44.256Z,99189.19
2023-03-22T05:10:11.446Z,99183.91
2023-03-22T05:12:39.721Z,99193.56
2023-03-22T05:15:28.545Z,99202.91
2023-03-22T05:17:55.924Z,99211.84
2023-03-22T05:20:25.058Z,99213.34
2023-03-22T05:23:14.817Z,99204.88
2023-03-22T05:25:47.680Z,99211.16
2023-03-22T05:28:19.805Z,99221.00
2023-03-22T05:31:05.969Z,99223.50
2023-03-22T05:33:42.914Z,99224.00
2023-03-22T05:36:17.030Z,99237.78
2023-03-22T05:39:15.978Z,99239.94
2023-03-22T05:41:44.226Z,99240.44
2023-03-22T05:44:11.376Z,99243.41
2023-03-22T05:46:44.263Z,99244.59
2023-03-22T05:49:23.370Z,99244.41
2023-03-22T05:51:50.718Z,99245.06
2023-03-22T05:54:19.131Z,99252.03
2023-03-22T05:56:50.202Z,99257.03
2023-03-22T05:59:17.281Z,99267.03
2023-03-22T06:01:44.905Z,99268.38
2023-03-22T06:04:23.714Z,99267.53
2023-03-22T06:06:57.482Z,99279.84
2023-03-22T06:09:40.539Z,99277.69
2023-03-22T06:12:12.380Z,99283.38
2023-03-22T06:14:40.479Z,99278.38
2023-03-22T06:17:15.425Z,99278.38
2023-03-22T06:19:43.929Z,99280.03
2023-03-22T06:22:13.521Z,99289.19
2023-03-22T06:24:43.369Z,99288.34
2023-03-22T06:27:14.623Z,99287.47
2023-03-22T06:29:41.832Z,99293.63
2023-03-22T06:32:09.052Z,99300.44
2023-03-22T06:34:36.476Z,99295.25
2023-03-22T06:37:03.639Z,99293.06
2023-03-22T06:39:34.505Z,99291.88
2023-03-22T06:42:01.920Z,99295.75
2023-03-22T06:44:29.340Z,99296.56
2023-03-22T06:47:16.576Z,99285.84
2023-03-22T06:49:54.798Z,99297.44
2023-03-22T06:52:26.185Z,99294.25
2023-03-22T06:54:53.379Z,99303.66
2023-03-22T06:57:20.641Z,99293.59
2023-03-22T06:59:47.782Z,99296.44
2023-03-22T07:02:14.796Z,99314.31
2023-03-22T07:04:54.608Z,99304.53
2023-03-22T07:07:21.713Z,99301.50
2023-03-22T07:09:50.062Z,99304.28
2023-03-22T07:12:18.907Z,99290.63
2023-03-22T07:14:47.434Z,99297.13
2023-03-22T07:17:24.990Z,99289.31
2023-03-22T07:19:52.414Z,99292.97
2023-03-22T07:22:24.973Z,99293.94
2023-03-22T07:24:57.249Z,99289.59
2023-03-22T07:27:27.705Z,99298.16
2023-03-22T07:29:55.583Z,99305.34
2023-03-22T07:32:23.089Z,99306.38
2023-03-22T07:35:10.521Z,99316.50
2023-03-22T07:37:39.980Z,99316.47
2023-03-22T07:40:16.411Z,99312.97
2023-03-22T07:42:44.043Z,99318.53
2023-03-22T07:45:23.561Z,99327.75
2023-03-22T07:48:13.989Z,99328.16
2023-03-22T07:51:07.297Z,99326.41
2023-03-22T07:53:34.609Z,99327.69
2023-03-22T07:56:04.545Z,99322.41
2023-03-22T07:58:31.847Z,99329.91
2023-03-22T08:01:05.089Z,99322.41
2023-03-22T08:03:54.421Z,99328.56
2023-03-22T08:06:43.031Z,99327.38
2023-03-22T08:09:11.699Z,99326.94
2023-03-22T08:11:38.791Z,99320.56
2023-03-22T08:14:06.320Z,99327.59
2023-03-22T08:16:38.532Z,99328.09
2023-03-22T08:19:06.827Z,99330.06
2023-03-22T08:21:37.420Z,99329.31
2023-03-22T08:24:07.550Z,99330.00
2023-03-22T08:26:57.739Z,99326.84
2023-03-22T08:29:39.131Z,99330.50
2023-03-22T08:32:07.900Z,99336.41
2023-03-22T08:34:40.203Z,99330.94
2023-03-22T08:37:08.800Z,99343.59
2023-03-22T08:39:36.801Z,99350.16
2023-03-22T08:42:19.014Z,99342.69
2023-03-22T08:44:47.141Z,99340.06
2023-03-22T08:47:14.531Z,99337.25
2023-03-22T08:49:43.377Z,99333.13
2023-03-22T08:52:27.157Z,99340.22
2023-03-22T08:55:02.093Z,99347.59
2023-03-22T08:57:50.583Z,99340.63
2023-03-22T09:00:36.483Z,99344.63
2023-03-22T09:03:42.526Z,99346.06
2023-03-22T09:06:11.379Z,99344.88
2023-03-22T09:08:42.416Z,99344.25
2023-03-22T09:11:13.828Z,99337.19
2023-03-22T09:13:43.038Z,99340.25
2023-03-22T09:16:10.248Z,99338.00
2023-03-22T09:18:38.842Z,99345.41
2023-03-22T09:21:12.346Z,99344.56
2023-03-22T09:24:08.810Z,99344.59
2023-03-22T09:26:50.577Z,99346.88
2023-03-22T09:29:19.616Z,99346.09
2023-03-22T09:31:49.103Z,99345.19
2023-03-22T09:34:20.283Z,99355.47
2023-03-22T09:36:47.676Z,99350.69
2023-03-22T09:39:18.454Z,99348.47
2023-03-22T09:41:55.181Z,99345.53
2023-03-22T09:44:39.568Z,99352.75
2023-03-22T09:47:19.510Z,99358.91
2023-03-22T09:49:53.711Z,99368.41
2023-03-22T09:52:21.796Z,99359.63
2023-03-22T09:54:51.517Z,99359.72
2023-03-22T09:57:33.381Z,99361.91
2023-03-22T10:00:16.692Z,99351.50
2023-03-22T10:02:46.633Z,99351.16
2023-03-22T10:05:34.688Z,99357.59
2023-03-22T10:08:05.009Z,99360.22
2023-03-22T10:10:32.363Z,99362.56
2023-03-22T10:13:23.508Z,99363.84
2023-03-22T10:15:59.260Z,99361.81
2023-03-22T10:18:39.598Z,99359.06
2023-03-22T10:21:14.579Z,99358.44
2023-03-22T10:24:20.465Z,99354.09
2023-03-22T10:26:49.230Z,99360.06
2023-03-22T10:29:39.811Z,99358.19
2023-03-22T10:32:15.272Z,99355.72
2023-03-22T10:34:43.696Z,99352.81
2023-03-22T10:37:17.544Z,99358.41
2023-03-22T10:39:50.033Z,99355.91
2023-03-22T10:42:21.729Z,99358.34
2023-03-22T10:44:54.714Z,99349.31
2023-03-22T10:47:33.641Z,99356.97
2023-03-22T10:50:05.092Z,99354.28
2023-03-22T10:52:44.805Z,99351.81
2023-03-22T10:55:13.817Z,99352.47
2023-03-22T10:57:43.409Z,99344.59
2023-03-22T11:00:15.356Z,99346.47
2023-03-22T11:02:53.699Z,99346.03
2023-03-22T11:05:27.430Z,99344.13
2023-03-22T11:07:55.088Z,99350.69
2023-03-22T11:10:23.646Z,99350.25
2023-03-22T11:12:54.093Z,99353.44
2023-03-22T11:15:30.705Z,99344.72
2023-03-22T11:18:16.872Z,99361.78
2023-03-22T11:20:58.213Z,99360.25
2023-03-22T11:23:26.174Z,99356.88
2023-03-22T11:25:56.700Z,99358.00
2023-03-22T11:28:36.305Z,99353.19
2023-03-22T11:31:11.246Z,99358.75
2023-03-22T11:33:54.801Z,99359.31
2023-03-22T11:36:22.387Z,99358.38
2023-03-22T11:38:57.579Z,99351.94
2023-03-22T11:41:31.012Z,99354.09
2023-03-22T11:44:12.341Z,99358.34
2023-03-22T11:46:40.389Z,99353.38
2023-03-22T11:49:14.800Z,99359.31
2023-03-22T11:51:43.968Z,99359.69
2023-03-22T11:54:16.839Z,99350.03
2023-03-22T11:56:47.681Z,99352.38
2023-03-22T11:59:37.174Z,99359.88
2023-03-22T12:02:34.712Z,99363.34
2023-03-22T12:05:09.424Z,99355.25
2023-03-22T12:07:37.803Z,99351.53
2023-03-22T12:10:23.308Z,99353.72
2023-03-22T12:12:56.103Z,99351.19
2023-03-22T12:15:35.629Z,99355.19
2023-03-22T12:18:08.791Z,99344.81
2023-03-22T12:20:35.795Z,99346.91
2023-03-22T12:23:14.348Z,99354.31
2023-03-22T12:26:03.861Z,99351.50
2023-03-22T12:28:58.827Z,99348.84
2023-03-22T12:32:01.211Z,99348.00
2023-03-22T12:34:43.732Z,99342.50
2023-03-22T12:37:17.848Z,99339.44
2023-03-22T12:40:07.476Z,99347.25
2023-03-22T12:42:58.995Z,99339.84
2023-03-22T12:45:32.004Z,99342.38
2023-03-22T12:48:10.638Z,99332.81
2023-03-22T12:50:48.584Z,99338.94
2023-03-22T12:53:18.888Z,99335.72
2023-03-22T12:55:47.582Z,99337.59
2023-03-22T12:58:22.307Z,99339.06
2023-03-22T13:00:59.390Z,99330.47
2023-03-22T13:03:36.969Z,99333.44
2023-03-22T13:06:42.069Z,99330.78
2023-03-22T13:09:30.090Z,99327.63
2023-03-22T13:12:16.000Z,99315.34
2023-03-22T13:14:49.606Z,99310.91
2023-03-22T13:17:22.450Z,99317.56
2023-03-22T13:19:55.579Z,99323.13
2023-03-22T13:22:38.070Z,99328.84
2023-03-22T13:25:14.709Z,99323.13
2023-03-22T13:28:00.004Z,99326.03
2023-03-22T13:30:50.260Z,99327.06
2023-03-22T13:33:20.202Z,99319.69
2023-03-22T13:35:57.494Z,99328.91
2023-03-22T13:38:35.240Z,99317.50
2023-03-22T13:41:14.213Z,99308.72
2023-03-22T13:43:54.342Z,99306.94
2023-03-22T13:46:21.470Z,99314.41
2023-03-22T13:48:52.078Z,99310.53
2023-03-22T13:51:26.589Z,99313.06
2023-03-22T13:53:53.749Z,99305.28
2023-03-22T13:56:43.162Z,99319.31
2023-03-22T13:59:23.034Z,99314.81
2023-03-22T14:02:08.539Z,99308.16
2023-03-22T14:04:46.410Z,99305.97
2023-03-22T14:07:40.181Z,99296.69
2023-03-22T14:10:16.454Z,99296.88
2023-03-22T14:12:46.374Z,99297.34
2023-03-22T14:15:21.361Z,99286.06
2023-03-22T14:18:15.126Z,99296.50
2023-03-22T14:20:42.933Z,99294.97
